McDougal, Arkansas
Current Conditions -  °F | °C
As of 10:55 AM on Monday 22 Dec 2014 (Local Time) from K4M9 Reporting Station
Light Rain Light Rain  
Wind Chill: 50°   Ceiling: Unl
Heat Index: 50°   Visibility: 2.5mi
Dew Point: 50°   Wind: 14mph
Humidity: 100%   Direction: 160°SSE
Pressure: 29.71"   Gusts: NA
Location:  36.44°N, 90.39°W
Report Text: K4M9 221655Z AUTO 16012KT 2 1/2SM -RA CLR 10/10 A2971 RMK AO2 P0001
Loading
Personal Weather Stations






























Interactive Weather Map New forecast layout! Learn more

10-Day Weather Forecast

Advertisements
Track Severe Weather on mobile